createdAt,value
2022-09-22T00:00:00.322Z,99.9
2022-09-22T00:02:05.832Z,99.9
2022-09-22T00:04:07.755Z,99.9
2022-09-22T00:06:09.883Z,99.9
2022-09-22T00:08:11.995Z,99.9
2022-09-22T00:10:14.076Z,99.9
2022-09-22T00:16:23.651Z,99.9
2022-09-22T00:18:25.728Z,99.9
2022-09-22T00:24:32.038Z,99.9
2022-09-22T00:26:34.148Z,99.9
2022-09-22T00:32:43.656Z,99.9
2022-09-22T00:35:48.444Z,99.9
2022-09-22T00:37:50.559Z,99.9
2022-09-22T00:39:52.626Z,99.9
2022-09-22T00:41:54.739Z,99.9
2022-09-22T00:44:00.126Z,99.9
2022-09-22T00:46:02.232Z,99.9
2022-09-22T00:48:04.242Z,99.9
2022-09-22T00:50:06.366Z,99.9
2022-09-22T00:54:10.532Z,99.9
2022-09-22T00:56:12.637Z,99.9
2022-09-22T00:58:17.973Z,99.9
2022-09-22T01:00:20.063Z,99.9
2022-09-22T01:02:22.130Z,99.9
2022-09-22T01:04:24.236Z,99.9
2022-09-22T01:06:26.305Z,99.9
2022-09-22T01:08:28.405Z,99.9
2022-09-22T01:12:35.839Z,99.9
2022-09-22T01:20:44.233Z,99.9
2022-09-22T01:24:48.387Z,99.9
2022-09-22T01:26:53.740Z,99.9
2022-09-22T01:28:55.790Z,99.9
2022-09-22T01:30:57.930Z,99.9
2022-09-22T01:33:26.830Z,99.9
2022-09-22T01:35:28.934Z,99.9
2022-09-22T01:41:38.400Z,99.9
2022-09-22T01:43:40.501Z,99.9
2022-09-22T01:45:42.568Z,99.9
2022-09-22T01:47:44.658Z,99.9
2022-09-22T01:49:46.756Z,99.9
2022-09-22T01:51:48.824Z,99.9
2022-09-22T01:53:54.149Z,99.9
2022-09-22T01:55:56.223Z,99.9
2022-09-22T01:57:58.327Z,99.9
2022-09-22T02:00:00.376Z,99.9
2022-09-22T02:02:02.621Z,99.9
2022-09-22T02:04:04.545Z,99.9
2022-09-22T02:06:06.616Z,99.9
2022-09-22T02:08:11.938Z,99.9
2022-09-22T02:10:14.009Z,99.9
2022-09-22T02:12:16.092Z,99.9
2022-09-22T02:14:18.170Z,99.9
2022-09-22T02:16:20.448Z,99.9
2022-09-22T02:18:22.299Z,99.9
2022-09-22T02:20:24.380Z,99.9
2022-09-22T02:22:29.700Z,99.9
2022-09-22T02:24:31.782Z,99.9
2022-09-22T02:26:34.010Z,99.9
2022-09-22T02:27:36.517Z,99.9
2022-09-22T02:29:38.558Z,99.9
2022-09-22T02:31:40.681Z,99.9
2022-09-22T02:35:48.024Z,99.9
2022-09-22T02:37:50.098Z,99.9
2022-09-22T02:39:52.161Z,99.9
2022-09-22T02:41:54.265Z,99.9
2022-09-22T02:43:56.334Z,99.9
2022-09-22T02:45:58.415Z,99.9
2022-09-22T02:48:00.442Z,99.9
2022-09-22T02:50:05.748Z,99.9
2022-09-22T02:52:07.830Z,99.9
2022-09-22T02:54:09.913Z,99.9
2022-09-22T02:56:11.980Z,99.9
2022-09-22T02:58:14.070Z,99.9
2022-09-22T03:00:16.126Z,99.9
2022-09-22T03:04:23.529Z,99.9
2022-09-22T03:06:25.554Z,99.9
2022-09-22T03:08:27.597Z,99.9
2022-09-22T03:14:33.812Z,99.9
2022-09-22T03:16:35.878Z,99.9
2022-09-22T03:18:41.181Z,99.9
2022-09-22T03:20:43.250Z,99.9
2022-09-22T03:22:45.307Z,99.9
2022-09-22T03:23:47.949Z,99.9
2022-09-22T03:25:50.024Z,99.9
2022-09-22T03:29:54.126Z,99.9
2022-09-22T03:31:59.434Z,99.9
2022-09-22T03:46:17.145Z,99.9
2022-09-22T03:48:19.154Z,99.9
2022-09-22T03:52:23.281Z,99.9
2022-09-22T03:54:25.344Z,99.9
2022-09-22T03:56:27.415Z,99.9
2022-09-22T04:00:34.780Z,99.9
2022-09-22T04:02:36.901Z,99.9
2022-09-22T04:04:38.882Z,99.9
2022-09-22T04:06:40.957Z,99.9
2022-09-22T04:08:43.001Z,99.9
2022-09-22T04:10:45.082Z,99.9
2022-09-22T04:12:47.135Z,99.9
2022-09-22T04:16:54.652Z,99.9
2022-09-22T04:19:59.202Z,99.9
2022-09-22T04:22:01.272Z,99.9
2022-09-22T04:24:03.344Z,99.9
2022-09-22T04:26:05.399Z,99.9
2022-09-22T04:28:10.685Z,99.9
2022-09-22T04:30:12.738Z,99.9
2022-09-22T04:32:14.804Z,99.9
2022-09-22T04:34:16.889Z,99.9
2022-09-22T04:36:19.767Z,99.9
2022-09-22T04:38:21.699Z,99.9
2022-09-22T04:40:23.854Z,99.9
2022-09-22T04:42:29.032Z,99.9
2022-09-22T04:44:34.688Z,99.9
2022-09-22T04:46:33.196Z,99.9
2022-09-22T04:48:35.204Z,99.9
2022-09-22T04:50:37.238Z,99.9
2022-09-22T04:56:46.643Z,99.9
2022-09-22T05:04:54.869Z,99.9
2022-09-22T05:06:56.932Z,99.9
2022-09-22T05:08:58.977Z,99.9
2022-09-22T05:11:05.807Z,99.9
2022-09-22T05:13:07.879Z,99.9
2022-09-22T05:15:09.909Z,99.9
2022-09-22T05:17:38.798Z,99.9
2022-09-22T05:19:40.839Z,99.9
2022-09-22T05:21:42.889Z,99.9
2022-09-22T05:23:48.198Z,99.9
2022-09-22T05:25:50.247Z,99.9
2022-09-22T05:27:52.315Z,99.9
2022-09-22T05:29:54.339Z,99.9
2022-09-22T05:31:56.519Z,99.9
2022-09-22T05:33:58.444Z,99.9
2022-09-22T05:36:00.498Z,99.9
2022-09-22T05:38:05.765Z,99.9
2022-09-22T05:40:07.915Z,99.9
2022-09-22T05:44:11.896Z,99.9
2022-09-22T05:46:13.960Z,99.9
2022-09-22T05:48:15.986Z,99.9
2022-09-22T05:50:18.027Z,99.9
2022-09-22T05:52:23.320Z,99.9
2022-09-22T05:54:25.353Z,99.9
2022-09-22T05:56:27.380Z,99.9
2022-09-22T05:58:29.449Z,99.9
2022-09-22T06:00:31.473Z,99.9
2022-09-22T06:02:33.577Z,99.9
2022-09-22T06:04:35.571Z,99.9
2022-09-22T06:06:40.862Z,99.9
2022-09-22T06:08:47.748Z,99.9
2022-09-22T06:10:44.949Z,99.9
2022-09-22T06:11:47.593Z,99.9
2022-09-22T06:13:49.631Z,99.9
2022-09-22T06:15:51.671Z,99.9
2022-09-22T06:17:53.730Z,99.9
2022-09-22T06:19:59.043Z,99.9
2022-09-22T06:22:01.126Z,99.9
2022-09-22T06:24:03.145Z,99.9
2022-09-22T06:26:05.187Z,99.9
2022-09-22T06:28:07.240Z,99.9
2022-09-22T06:30:09.287Z,99.9
2022-09-22T06:32:11.349Z,99.9
2022-09-22T06:34:16.632Z,99.9
2022-09-22T06:36:18.687Z,99.9
2022-09-22T06:38:20.765Z,99.9
2022-09-22T06:40:22.904Z,99.9
2022-09-22T06:42:24.904Z,99.9
2022-09-22T06:44:26.979Z,99.9
2022-09-22T06:46:29.046Z,99.9
2022-09-22T06:48:34.385Z,99.9
2022-09-22T06:50:36.442Z,99.9
2022-09-22T06:52:38.575Z,99.9
2022-09-22T06:56:42.723Z,99.9
2022-09-22T06:59:08.250Z,99.9
2022-09-22T07:00:47.022Z,99.9
2022-09-22T07:02:52.229Z,99.9
2022-09-22T07:06:56.425Z,99.9
2022-09-22T07:07:59.086Z,99.9
2022-09-22T07:10:01.211Z,99.9
2022-09-22T07:12:03.341Z,99.9
2022-09-22T07:14:05.402Z,99.9
2022-09-22T07:16:10.814Z,99.9
2022-09-22T07:18:12.864Z,99.9
2022-09-22T07:20:14.979Z,99.9
2022-09-22T07:22:17.107Z,99.9
2022-09-22T07:24:19.211Z,99.9
2022-09-22T07:26:21.337Z,99.9
2022-09-22T07:28:23.485Z,99.9
2022-09-22T07:30:28.831Z,99.9
2022-09-22T07:32:30.970Z,99.9
2022-09-22T07:34:33.072Z,99.9
2022-09-22T07:36:35.227Z,99.9
2022-09-22T07:38:37.389Z,99.9
2022-09-22T07:40:39.610Z,99.9
2022-09-22T07:42:41.619Z,99.9
2022-09-22T07:44:46.998Z,99.9
2022-09-22T07:46:49.227Z,99.9
2022-09-22T07:48:51.315Z,99.9
2022-09-22T07:50:53.421Z,99.9
2022-09-22T07:52:55.566Z,99.9
2022-09-22T07:54:57.721Z,99.9
2022-09-22T07:56:59.854Z,99.9
2022-09-22T07:59:05.429Z,99.9
2022-09-22T08:01:07.434Z,99.9
2022-09-22T08:04:12.269Z,99.9
2022-09-22T08:06:14.441Z,99.9
2022-09-22T08:08:16.592Z,99.9
2022-09-22T08:10:18.829Z,99.9
2022-09-22T08:12:24.163Z,99.9
2022-09-22T08:14:26.731Z,99.9
2022-09-22T08:16:29.003Z,99.9
2022-09-22T08:18:31.057Z,99.9
2022-09-22T08:20:33.231Z,99.9
2022-09-22T08:22:35.392Z,99.9
2022-09-22T08:24:37.560Z,99.9
2022-09-22T08:26:47.965Z,99.9
2022-09-22T08:28:45.137Z,99.9
2022-09-22T08:32:49.512Z,99.9
2022-09-22T08:34:51.701Z,99.9
2022-09-22T08:38:56.057Z,99.9
2022-09-22T08:41:01.476Z,99.9
2022-09-22T08:45:05.859Z,99.9
2022-09-22T08:49:10.265Z,99.9
2022-09-22T08:53:14.632Z,99.9
2022-09-22T08:57:22.250Z,99.9
2022-09-22T08:59:24.472Z,99.9
2022-09-22T09:03:55.579Z,99.9
2022-09-22T09:05:57.694Z,99.9
2022-09-22T09:10:05.329Z,99.9
2022-09-22T09:12:07.558Z,99.9
2022-09-22T09:14:09.632Z,99.9
2022-09-22T09:16:11.805Z,99.9
2022-09-22T09:18:13.839Z,99.9
2022-09-22T09:20:15.947Z,99.9
2022-09-22T09:22:21.311Z,99.9
2022-09-22T09:26:25.738Z,99.9
2022-09-22T09:28:28.168Z,99.9
2022-09-22T09:30:30.047Z,99.9
2022-09-22T09:32:32.163Z,99.9
2022-09-22T09:34:34.258Z,99.9
2022-09-22T09:36:39.519Z,99.9
2022-09-22T09:38:41.717Z,99.9
2022-09-22T09:40:43.929Z,99.9
2022-09-22T09:42:45.933Z,99.9
2022-09-22T09:44:48.044Z,99.9
2022-09-22T09:46:50.163Z,99.9
2022-09-22T09:48:52.267Z,99.9
2022-09-22T09:50:57.524Z,99.9
2022-09-22T09:52:59.604Z,99.9
2022-09-22T09:55:01.740Z,99.9
2022-09-22T09:58:06.581Z,99.9
2022-09-22T10:02:10.683Z,99.9
2022-09-22T10:04:15.933Z,99.9
2022-09-22T10:06:18.065Z,99.9
2022-09-22T10:08:20.299Z,99.9
2022-09-22T10:10:22.265Z,99.9
2022-09-22T10:14:26.488Z,99.9
2022-09-22T10:16:28.590Z,99.9
2022-09-22T10:20:36.079Z,99.9
2022-09-22T10:24:40.302Z,99.9
2022-09-22T10:26:42.432Z,99.9
2022-09-22T10:30:46.716Z,99.9
2022-09-22T10:32:51.893Z,99.9
2022-09-22T10:34:53.999Z,99.9
2022-09-22T10:36:56.120Z,99.9
2022-09-22T10:38:59.854Z,99.9
2022-09-22T10:41:00.319Z,99.9
2022-09-22T10:43:02.461Z,99.9
2022-09-22T10:45:04.568Z,99.9
2022-09-22T10:47:09.880Z,99.9
2022-09-22T10:49:11.945Z,99.9
2022-09-22T10:51:14.072Z,99.9
2022-09-22T10:52:16.688Z,99.9
2022-09-22T10:54:18.815Z,99.9
2022-09-22T10:56:20.926Z,99.9
2022-09-22T10:58:23.050Z,99.9
2022-09-22T11:00:29.860Z,99.9
2022-09-22T11:02:31.943Z,99.9
2022-09-22T11:04:34.092Z,99.9
2022-09-22T11:06:36.156Z,99.9
2022-09-22T11:08:38.290Z,99.9
2022-09-22T11:10:40.391Z,99.9
2022-09-22T11:12:42.514Z,99.2
2022-09-22T11:14:47.776Z,97.3
2022-09-22T11:16:49.909Z,96.3
2022-09-22T11:18:52.016Z,95.7
2022-09-22T11:20:54.138Z,95.3
2022-09-22T11:22:56.258Z,93.7
2022-09-22T11:24:58.364Z,93.4
2022-09-22T11:27:00.472Z,93.2
2022-09-22T11:29:05.742Z,92.8
2022-09-22T11:31:07.892Z,92.9
2022-09-22T11:33:09.993Z,93.2
2022-09-22T11:35:12.270Z,93.1
2022-09-22T11:37:14.181Z,92.5
2022-09-22T11:39:16.309Z,91.7
2022-09-22T11:41:18.465Z,91.3
2022-09-22T11:43:23.695Z,91
2022-09-22T11:45:25.816Z,91.1
2022-09-22T11:48:30.559Z,91.2
2022-09-22T11:50:32.690Z,91.1
2022-09-22T11:58:44.298Z,91.7
2022-09-22T12:00:46.415Z,91.9
2022-09-22T12:02:48.742Z,91.9
2022-09-22T12:04:50.675Z,91.9
2022-09-22T12:06:52.798Z,91.4
2022-09-22T12:11:00.156Z,90.8
2022-09-22T12:13:02.291Z,90.9
2022-09-22T12:15:04.412Z,91.1
2022-09-22T12:17:06.525Z,91.3
2022-09-22T12:19:08.641Z,91.7
2022-09-22T12:21:10.780Z,92
2022-09-22T12:23:12.855Z,91.9
2022-09-22T12:25:26.093Z,91.5
2022-09-22T12:27:20.268Z,91.5
2022-09-22T12:29:22.360Z,91.2
2022-09-22T12:33:26.591Z,90.9
2022-09-22T12:35:30.926Z,90.6
2022-09-22T12:37:30.832Z,90.5
2022-09-22T12:39:36.317Z,90.6
2022-09-22T12:41:38.207Z,90.7
2022-09-22T12:43:40.345Z,90.8
2022-09-22T12:46:09.010Z,91.6
2022-09-22T12:48:11.137Z,91.7
2022-09-22T12:50:13.254Z,92.1
2022-09-22T12:52:18.510Z,92.5
2022-09-22T12:54:20.618Z,92.5
2022-09-22T12:56:22.768Z,92.5
2022-09-22T12:58:24.878Z,92.6
2022-09-22T13:00:29.163Z,92.4
2022-09-22T13:02:29.116Z,92.1
2022-09-22T13:04:31.215Z,91.6
2022-09-22T13:06:36.491Z,90.1
2022-09-22T13:08:38.604Z,89.4
2022-09-22T13:10:40.734Z,89.1
2022-09-22T13:12:42.851Z,89.1
2022-09-22T13:14:44.953Z,88.6
2022-09-22T13:18:49.217Z,88
2022-09-22T13:22:56.581Z,88.7
2022-09-22T13:24:58.687Z,88.8
2022-09-22T13:27:00.824Z,88.1
2022-09-22T13:29:02.929Z,87.4
2022-09-22T13:31:06.404Z,87.3
2022-09-22T13:33:07.157Z,87.5
2022-09-22T13:35:12.428Z,88.9
2022-09-22T13:37:14.544Z,89.1
2022-09-22T13:39:16.643Z,89.5
2022-09-22T13:40:19.337Z,89.4
2022-09-22T13:42:21.408Z,89
2022-09-22T13:44:23.515Z,87
2022-09-22T13:46:25.645Z,86.7
2022-09-22T13:48:30.923Z,86
2022-09-22T13:50:33.021Z,85.5
2022-09-22T13:52:35.149Z,83.4
2022-09-22T13:58:41.501Z,79.5
2022-09-22T14:01:08.718Z,79.1
2022-09-22T14:02:48.918Z,79.5
2022-09-22T14:04:50.997Z,79.3
2022-09-22T14:06:53.118Z,80.3
2022-09-22T14:08:55.226Z,80.6
2022-09-22T14:10:57.309Z,81
2022-09-22T14:12:59.444Z,81.1
2022-09-22T14:15:01.551Z,82.3
2022-09-22T14:17:06.806Z,80.1
2022-09-22T14:19:08.960Z,79.6
2022-09-22T14:27:17.384Z,82.8
2022-09-22T14:29:19.458Z,83.1
2022-09-22T14:31:24.764Z,83.6
2022-09-22T14:33:26.834Z,82.8
2022-09-22T14:35:28.975Z,78.7
2022-09-22T14:36:31.613Z,79
2022-09-22T14:38:33.707Z,80.1
2022-09-22T14:40:35.884Z,81.3
2022-09-22T14:44:43.215Z,81.7
2022-09-22T14:46:45.333Z,81.7
2022-09-22T14:48:47.428Z,79.9
2022-09-22T14:50:49.590Z,77.8
2022-09-22T14:52:51.664Z,74.2
2022-09-22T14:54:53.754Z,73.8
2022-09-22T14:56:55.913Z,73.7
2022-09-22T14:59:01.129Z,73.3
2022-09-22T15:01:03.280Z,73.1
2022-09-22T15:03:05.354Z,73
2022-09-22T15:05:07.466Z,72.7
2022-09-22T15:09:11.494Z,72.5
2022-09-22T15:13:18.855Z,73.1
2022-09-22T15:21:27.294Z,73.4
2022-09-22T15:23:29.419Z,73
2022-09-22T15:29:38.886Z,74.3
2022-09-22T15:31:41.022Z,75.1
2022-09-22T15:32:45.247Z,75
2022-09-22T15:36:47.804Z,74.9
2022-09-22T15:38:49.915Z,74.6
2022-09-22T15:40:55.181Z,73.5
2022-09-22T15:43:12.088Z,73.3
2022-09-22T15:44:59.592Z,72.6
2022-09-22T16:21:43.738Z,71
2022-09-22T16:23:49.010Z,74
2022-09-22T16:25:51.094Z,78.3
2022-09-22T16:27:53.228Z,79
2022-09-22T16:32:23.976Z,81.9
2022-09-22T16:34:26.074Z,82.9
2022-09-22T16:40:35.760Z,88.4
2022-09-22T16:42:37.748Z,89
2022-09-22T16:44:39.815Z,89.8
2022-09-22T16:46:41.975Z,90.2
2022-09-22T16:48:44.061Z,90.7
2022-09-22T16:50:49.331Z,91.3
2022-09-22T16:52:53.001Z,91.8
2022-09-22T16:54:55.089Z,92.1
2022-09-22T16:56:57.205Z,92.5
2022-09-22T16:58:59.345Z,92.9
2022-09-22T17:03:03.614Z,93.6
2022-09-22T17:05:08.868Z,94.4
2022-09-22T17:07:10.992Z,94.7
2022-09-22T17:09:13.121Z,95
2022-09-22T17:11:15.241Z,95.4
2022-09-22T17:13:17.356Z,95.7
2022-09-22T17:15:19.494Z,96
2022-09-22T17:21:33.487Z,97.3
2022-09-22T17:24:33.769Z,98.1
2022-09-22T17:26:35.872Z,98.4
2022-09-22T17:28:38.014Z,98.7
2022-09-22T17:30:40.207Z,99.1
2022-09-22T17:32:45.435Z,99.6
2022-09-22T17:34:47.525Z,99.8
2022-09-22T17:36:49.677Z,99.8
2022-09-22T17:38:51.829Z,99.8
2022-09-22T17:40:53.922Z,99.9
2022-09-22T17:42:56.042Z,99.9
2022-09-22T17:44:58.185Z,99.9
2022-09-22T17:47:03.443Z,99.9
2022-09-22T17:49:05.562Z,99.9
2022-09-22T17:51:07.673Z,99.9
2022-09-22T17:53:09.817Z,99.9
2022-09-22T17:55:11.924Z,99.9
2022-09-22T17:57:14.078Z,99.9
2022-09-22T17:59:16.202Z,99.9
2022-09-22T18:01:21.517Z,99.9
2022-09-22T18:03:23.586Z,99.9
2022-09-22T18:05:25.712Z,99.9
2022-09-22T18:07:27.846Z,99.9
2022-09-22T18:09:29.958Z,99.9
2022-09-22T18:11:32.068Z,99.9
2022-09-22T18:13:39.010Z,99.9
2022-09-22T18:15:39.812Z,99.9
2022-09-22T18:17:41.882Z,99.9
2022-09-22T18:19:43.994Z,99.9
2022-09-22T18:20:46.620Z,99.9
2022-09-22T18:22:48.754Z,99.9
2022-09-22T18:24:50.886Z,99.9
2022-09-22T18:26:52.984Z,99.9
2022-09-22T18:28:58.311Z,99.9
2022-09-22T18:31:00.425Z,99.9
2022-09-22T18:33:02.495Z,99.9
2022-09-22T18:35:04.630Z,99.9
2022-09-22T18:37:06.761Z,99.9
2022-09-22T18:39:08.980Z,99.9
2022-09-22T18:41:11.107Z,99.9
2022-09-22T18:43:16.370Z,99.9
2022-09-22T18:45:18.493Z,99.9
2022-09-22T18:47:20.716Z,99.9
2022-09-22T18:49:22.838Z,99.9
2022-09-22T18:51:24.977Z,99.9
2022-09-22T18:53:27.067Z,99.9
2022-09-22T18:55:29.369Z,99.9
2022-09-22T18:57:34.566Z,99.9
2022-09-22T18:59:36.687Z,99.9
2022-09-22T19:01:39.048Z,99.9
2022-09-22T19:03:41.149Z,99.9
2022-09-22T19:05:43.362Z,99.9
2022-09-22T19:07:45.575Z,99.9
2022-09-22T19:09:47.802Z,99.9
2022-09-22T19:11:53.037Z,99.9
2022-09-22T19:13:55.274Z,99.9
2022-09-22T19:15:58.147Z,99.9
2022-09-22T19:17:00.216Z,99.9
2022-09-22T19:19:02.400Z,99.9
2022-09-22T19:21:04.577Z,99.9
2022-09-22T19:23:06.684Z,99.9
2022-09-22T19:25:12.053Z,99.9
2022-09-22T19:27:14.266Z,99.9
2022-09-22T19:29:16.638Z,99.9
2022-09-22T19:31:18.791Z,99.9
2022-09-22T19:33:20.898Z,99.9
2022-09-22T19:35:23.249Z,99.9
2022-09-22T19:37:25.333Z,99.9
2022-09-22T19:39:30.667Z,99.9
2022-09-22T19:41:32.895Z,99.9
2022-09-22T19:43:35.103Z,99.9
2022-09-22T19:45:37.275Z,99.9
2022-09-22T19:47:39.522Z,99.9
2022-09-22T19:49:41.741Z,99.9
2022-09-22T19:51:43.951Z,99.9
2022-09-22T19:53:49.400Z,99.9
2022-09-22T19:55:51.609Z,99.9
2022-09-22T19:57:53.835Z,99.9
2022-09-22T19:59:56.026Z,99.9
2022-09-22T20:01:58.279Z,99.9
2022-09-22T20:04:00.436Z,99.9
2022-09-22T20:06:02.628Z,99.9
2022-09-22T20:08:08.077Z,99.9
2022-09-22T20:12:12.471Z,99.9
2022-09-22T20:14:41.391Z,99.9
2022-09-22T20:20:51.278Z,99.9
2022-09-22T20:22:53.465Z,99.9
2022-09-22T20:24:55.741Z,99.9
2022-09-22T20:26:57.844Z,99.9
2022-09-22T20:29:00.042Z,99.9
2022-09-22T20:31:02.302Z,99.9
2022-09-22T20:33:04.424Z,99.9
2022-09-22T20:37:12.084Z,99.9
2022-09-22T20:39:14.226Z,99.9
2022-09-22T20:41:16.431Z,99.9
2022-09-22T20:45:20.826Z,99.9
2022-09-22T20:49:28.448Z,99.9
2022-09-22T20:51:30.647Z,99.9
2022-09-22T20:53:32.823Z,99.9
2022-09-22T20:55:35.065Z,99.9
2022-09-22T20:57:37.220Z,99.9
2022-09-22T20:59:39.424Z,99.9
2022-09-22T21:01:41.688Z,99.9
2022-09-22T21:03:47.033Z,99.9
2022-09-22T21:05:49.358Z,99.9
2022-09-22T21:07:51.403Z,99.9
2022-09-22T21:08:54.126Z,99.9
2022-09-22T21:12:58.533Z,99.9
2022-09-22T21:17:06.115Z,99.9
2022-09-22T21:19:08.338Z,99.9
2022-09-22T21:23:12.714Z,99.9
2022-09-22T21:25:14.882Z,99.9
2022-09-22T21:27:17.102Z,99.9
2022-09-22T21:29:19.286Z,99.9
2022-09-22T21:31:24.733Z,99.9
2022-09-22T21:33:26.897Z,99.9
2022-09-22T21:35:29.056Z,99.9
2022-09-22T21:37:31.258Z,99.9
2022-09-22T21:39:33.451Z,99.9
2022-09-22T21:41:35.608Z,99.9
2022-09-22T21:43:37.795Z,99.9
2022-09-22T21:45:43.250Z,99.9
2022-09-22T21:47:45.449Z,99.9
2022-09-22T21:49:47.618Z,99.9
2022-09-22T21:51:49.817Z,99.9
2022-09-22T21:53:52.007Z,99.9
2022-09-22T21:55:54.161Z,99.9
2022-09-22T21:57:56.368Z,99.9
2022-09-22T22:00:01.879Z,99.9
2022-09-22T22:02:04.002Z,99.9
2022-09-22T22:04:06.321Z,99.9
2022-09-22T22:05:08.873Z,99.9
2022-09-22T22:07:11.069Z,99.9
2022-09-22T22:09:13.241Z,99.9
2022-09-22T22:11:15.425Z,99.9
2022-09-22T22:13:20.858Z,99.9
2022-09-22T22:17:25.224Z,99.9
2022-09-22T22:19:27.395Z,99.9
2022-09-22T22:21:29.562Z,99.9
2022-09-22T22:23:31.734Z,99.9
2022-09-22T22:25:34.047Z,99.9
2022-09-22T22:27:39.344Z,99.9
2022-09-22T22:29:41.516Z,99.9
2022-09-22T22:31:43.691Z,99.9
2022-09-22T22:33:45.872Z,99.9
2022-09-22T22:35:48.043Z,99.9
2022-09-22T22:37:50.200Z,99.9
2022-09-22T22:41:57.810Z,99.9
2022-09-22T22:43:59.992Z,99.9
2022-09-22T22:46:03.774Z,99.9
2022-09-22T22:48:05.861Z,99.9
2022-09-22T22:50:08.015Z,99.9
2022-09-22T22:52:10.214Z,99.9
2022-09-22T22:54:12.395Z,99.9
2022-09-22T22:56:17.803Z,99.9
2022-09-22T22:58:19.956Z,99.9
2022-09-22T23:00:22.136Z,99.9
2022-09-22T23:01:24.912Z,99.9
2022-09-22T23:03:27.030Z,99.9
2022-09-22T23:05:29.273Z,99.9
2022-09-22T23:09:36.821Z,99.9
2022-09-22T23:11:38.996Z,99.9
2022-09-22T23:13:41.148Z,99.9
2022-09-22T23:15:43.378Z,99.9
2022-09-22T23:17:45.492Z,99.9
2022-09-22T23:19:47.678Z,99.9
2022-09-22T23:21:49.845Z,99.9
2022-09-22T23:25:57.412Z,99.9
2022-09-22T23:30:01.748Z,99.9
2022-09-22T23:32:03.880Z,99.9
2022-09-22T23:36:08.207Z,99.9
2022-09-22T23:40:15.826Z,99.9
2022-09-22T23:48:24.468Z,99.9
2022-09-22T23:50:26.631Z,99.9
2022-09-22T23:56:36.359Z,99.9
